createdAt,value
2022-09-20T00:01:06.446Z,0.70
2022-09-20T00:03:54.871Z,0.60
2022-09-20T00:06:40.009Z,0.60
2022-09-20T00:09:24.886Z,0.60
2022-09-20T00:12:09.994Z,0.60
2022-09-20T00:14:55.398Z,0.60
2022-09-20T00:17:40.519Z,0.60
2022-09-20T00:20:25.958Z,0.60
2022-09-20T00:23:11.062Z,0.60
2022-09-20T00:26:01.329Z,0.70
2022-09-20T00:28:47.057Z,0.70
2022-09-20T00:31:32.490Z,0.70
2022-09-20T00:34:36.272Z,0.50
2022-09-20T00:37:21.474Z,0.50
2022-09-20T00:40:10.496Z,0.60
2022-09-20T00:42:55.923Z,0.70
2022-09-20T00:45:41.620Z,0.67
2022-09-20T00:48:32.537Z,0.50
2022-09-20T00:51:25.252Z,0.80
2022-09-20T00:54:15.880Z,0.60
2022-09-20T00:57:04.867Z,0.70
2022-09-20T00:59:51.363Z,0.77
2022-09-20T01:02:45.741Z,0.50
2022-09-20T01:05:30.965Z,0.70
2022-09-20T01:08:17.146Z,0.50
2022-09-20T01:11:02.536Z,0.47
2022-09-20T01:13:47.728Z,0.60
2022-09-20T01:16:34.184Z,0.50
2022-09-20T01:19:40.565Z,0.70
2022-09-20T01:22:35.533Z,0.53
2022-09-20T01:25:58.217Z,0.73
2022-09-20T01:28:48.858Z,0.50
2022-09-20T01:31:40.727Z,0.37
2022-09-20T01:34:37.495Z,0.77
2022-09-20T01:37:27.401Z,0.60
2022-09-20T01:40:20.434Z,0.50
2022-09-20T01:43:16.170Z,0.47
2022-09-20T01:46:11.235Z,0.80
2022-09-20T01:49:34.948Z,0.63
2022-09-20T01:53:26.733Z,0.40
2022-09-20T01:56:43.453Z,0.60
2022-09-20T01:59:40.522Z,0.87
2022-09-20T02:02:42.314Z,0.50
2022-09-20T02:05:39.945Z,0.70
2022-09-20T02:08:44.014Z,0.80
2022-09-20T02:11:36.932Z,0.57
2022-09-20T02:14:57.372Z,0.60
2022-09-20T02:17:54.788Z,0.53
2022-09-20T02:21:03.694Z,0.60
2022-09-20T02:24:16.420Z,0.50
2022-09-20T02:27:01.309Z,0.70
2022-09-20T02:30:11.326Z,0.57
2022-09-20T02:33:05.263Z,0.60
2022-09-20T02:36:21.486Z,0.70
2022-09-20T02:39:26.655Z,0.53
2022-09-20T02:42:29.330Z,0.53
2022-09-20T02:45:38.375Z,0.60
2022-09-20T02:48:43.521Z,0.67
2022-09-20T02:51:41.249Z,0.60
2022-09-20T02:54:32.507Z,0.73
2022-09-20T02:57:23.716Z,0.80
2022-09-20T03:00:21.693Z,0.60
2022-09-20T03:03:28.425Z,0.80
2022-09-20T03:06:35.576Z,0.60
2022-09-20T03:09:44.127Z,0.70
2022-09-20T03:12:44.624Z,0.50
2022-09-20T03:15:43.401Z,0.80
2022-09-20T03:18:31.270Z,0.60
2022-09-20T03:21:52.509Z,0.60
2022-09-20T03:25:09.205Z,0.40
2022-09-20T03:28:03.174Z,0.40
2022-09-20T03:31:00.565Z,0.60
2022-09-20T03:34:04.690Z,0.33
2022-09-20T03:37:12.905Z,0.50
2022-09-20T03:40:19.699Z,0.60
2022-09-20T03:43:20.604Z,0.50
2022-09-20T03:46:15.476Z,0.50
2022-09-20T03:49:26.222Z,0.70
2022-09-20T03:52:41.038Z,0.60
2022-09-20T03:55:50.945Z,0.50
2022-09-20T03:58:57.207Z,0.60
2022-09-20T04:02:09.816Z,0.60
2022-09-20T04:05:07.530Z,0.80
2022-09-20T04:08:31.116Z,0.43
2022-09-20T04:11:19.333Z,0.77
2022-09-20T04:14:16.801Z,0.40
2022-09-20T04:17:18.178Z,0.70
2022-09-20T04:20:03.320Z,0.40
2022-09-20T04:22:52.022Z,0.50
2022-09-20T04:25:44.228Z,0.57
2022-09-20T04:29:12.474Z,0.50
2022-09-20T04:32:16.029Z,0.50
2022-09-20T04:35:47.937Z,0.60
2022-09-20T04:38:35.602Z,0.70
2022-09-20T04:41:49.771Z,0.63
2022-09-20T04:45:09.791Z,0.57
2022-09-20T04:48:13.628Z,0.80
2022-09-20T04:51:10.739Z,0.60
2022-09-20T04:54:13.907Z,0.80
2022-09-20T04:57:14.275Z,0.50
2022-09-20T05:00:13.179Z,0.80
2022-09-20T05:03:27.393Z,0.50
2022-09-20T05:06:34.673Z,0.70
2022-09-20T05:09:41.287Z,0.50
2022-09-20T05:12:48.727Z,0.70
2022-09-20T05:15:58.592Z,0.70
2022-09-20T05:19:04.938Z,0.80
2022-09-20T05:22:13.270Z,0.90
2022-09-20T05:25:15.041Z,0.80
2022-09-20T05:28:14.841Z,0.50
2022-09-20T05:31:10.190Z,0.47
2022-09-20T05:34:08.421Z,0.70
2022-09-20T05:37:05.225Z,0.67
2022-09-20T05:39:59.364Z,1.10
2022-09-20T05:43:00.307Z,0.63
2022-09-20T05:46:16.252Z,0.70
2022-09-20T05:49:11.953Z,0.60
2022-09-20T05:52:22.348Z,0.90
2022-09-20T05:55:23.098Z,0.70
2022-09-20T05:58:40.030Z,0.60
2022-09-20T06:01:42.498Z,3.27
2022-09-20T06:05:01.305Z,3.23
2022-09-20T06:08:08.640Z,2.37
2022-09-20T06:11:06.010Z,7.30
2022-09-20T06:14:10.162Z,31.90
2022-09-20T06:17:01.449Z,18.07
2022-09-20T06:20:09.051Z,20.13
2022-09-20T06:23:00.761Z,18.80
2022-09-20T06:25:57.215Z,23.00
2022-09-20T06:28:47.206Z,147.17
2022-09-20T06:31:32.822Z,91.50
2022-09-20T06:34:17.794Z,90.37
2022-09-20T06:37:27.806Z,87.07
2022-09-20T06:40:55.692Z,118.10
2022-09-20T06:43:41.516Z,149.23
2022-09-20T06:46:28.947Z,148.13
2022-09-20T06:49:14.060Z,129.47
2022-09-20T06:52:00.395Z,118.70
2022-09-20T06:54:46.944Z,117.10
2022-09-20T06:57:37.924Z,117.33
2022-09-20T07:00:23.433Z,113.37
2022-09-20T07:03:08.620Z,106.53
2022-09-20T07:05:54.115Z,92.63
2022-09-20T07:08:39.305Z,80.50
2022-09-20T07:11:24.870Z,62.00
2022-09-20T07:14:09.817Z,62.03
2022-09-20T07:16:55.109Z,63.93
2022-09-20T07:19:40.594Z,56.73
2022-09-20T07:22:26.878Z,51.10
2022-09-20T07:25:12.250Z,48.13
2022-09-20T07:27:57.576Z,45.93
2022-09-20T07:30:43.799Z,44.10
2022-09-20T07:33:28.875Z,42.80
2022-09-20T07:36:14.267Z,45.57
2022-09-20T07:38:59.146Z,41.17
2022-09-20T07:41:48.554Z,48.47
2022-09-20T07:44:33.610Z,55.97
2022-09-20T07:47:18.678Z,51.93
2022-09-20T07:50:04.582Z,53.10
2022-09-20T07:52:49.718Z,49.20
2022-09-20T07:55:35.613Z,46.50
2022-09-20T07:58:20.762Z,50.77
2022-09-20T08:01:09.523Z,46.40
2022-09-20T08:03:55.264Z,45.80
2022-09-20T08:06:45.486Z,45.67
2022-09-20T08:09:30.670Z,46.23
2022-09-20T08:15:21.344Z,49.87
2022-09-20T08:18:11.837Z,45.00
2022-09-20T08:20:57.358Z,43.17
2022-09-20T08:23:45.709Z,41.93
2022-09-20T08:26:35.714Z,43.27
2022-09-20T08:29:20.686Z,43.20
2022-09-20T08:32:05.945Z,41.43
2022-09-20T08:34:51.230Z,40.07
2022-09-20T08:37:36.487Z,38.63
2022-09-20T08:40:23.840Z,36.30
2022-09-20T08:43:10.524Z,31.63
2022-09-20T08:46:05.471Z,29.80
2022-09-20T08:48:52.460Z,28.47
2022-09-20T08:51:42.875Z,30.97
2022-09-20T08:54:32.730Z,33.17
2022-09-20T08:57:20.653Z,33.83
2022-09-20T09:00:07.156Z,32.27
2022-09-20T09:02:57.713Z,32.03
2022-09-20T09:05:52.684Z,30.93
2022-09-20T09:08:38.790Z,31.90
2022-09-20T09:11:24.202Z,29.40
2022-09-20T09:14:43.237Z,29.00
2022-09-20T09:17:30.014Z,27.13
2022-09-20T09:20:21.538Z,28.63
2022-09-20T09:23:09.115Z,26.43
2022-09-20T09:25:55.135Z,26.07
2022-09-20T09:28:40.044Z,25.63
2022-09-20T09:31:26.346Z,26.17
2022-09-20T09:34:29.437Z,24.50
2022-09-20T09:37:29.101Z,23.83
2022-09-20T09:40:17.739Z,21.43
2022-09-20T09:43:03.530Z,20.07
2022-09-20T09:45:49.268Z,20.87
2022-09-20T09:48:37.220Z,21.13
2022-09-20T09:51:23.513Z,20.60
2022-09-20T09:54:19.690Z,19.43
2022-09-20T09:57:23.665Z,18.37
2022-09-20T10:00:21.418Z,17.60
2022-09-20T10:03:19.342Z,16.67
2022-09-20T10:06:26.889Z,17.17
2022-09-20T10:09:18.042Z,18.23
2022-09-20T10:12:17.572Z,17.77
2022-09-20T10:15:27.978Z,18.47
2022-09-20T10:18:37.230Z,19.13
2022-09-20T10:21:43.863Z,18.47
2022-09-20T10:24:51.379Z,16.33
2022-09-20T10:28:03.971Z,14.90
2022-09-20T10:31:24.929Z,15.47
2022-09-20T10:34:14.120Z,15.37
2022-09-20T10:37:01.030Z,14.30
2022-09-20T10:39:52.110Z,14.00
2022-09-20T10:43:04.580Z,13.20
2022-09-20T10:46:31.459Z,13.97
2022-09-20T10:49:40.046Z,13.43
2022-09-20T10:52:50.088Z,14.13
2022-09-20T10:56:15.201Z,13.47
2022-09-20T10:59:29.247Z,13.37
2022-09-20T11:02:38.402Z,12.90
2022-09-20T11:05:26.710Z,12.60
2022-09-20T11:08:22.684Z,12.47
2022-09-20T11:11:12.943Z,11.10
2022-09-20T11:14:10.927Z,11.70
2022-09-20T11:17:08.399Z,11.40
2022-09-20T11:20:17.683Z,10.07
2022-09-20T11:23:14.401Z,10.27
2022-09-20T11:26:09.970Z,10.67
2022-09-20T11:29:02.895Z,9.77
2022-09-20T11:31:50.951Z,10.13
2022-09-20T11:34:51.417Z,10.27
2022-09-20T11:37:41.702Z,9.53
2022-09-20T11:40:32.919Z,8.93
2022-09-20T11:43:19.562Z,9.33
2022-09-20T11:46:09.952Z,9.17
2022-09-20T11:49:09.181Z,8.63
2022-09-20T11:52:30.080Z,8.23
2022-09-20T11:55:42.414Z,8.33
2022-09-20T11:58:27.739Z,8.50
2022-09-20T12:01:14.046Z,8.00
2022-09-20T12:07:36.613Z,7.87
2022-09-20T12:10:37.175Z,7.97
2022-09-20T12:13:25.406Z,7.83
2022-09-20T12:16:17.327Z,7.70
2022-09-20T12:19:09.876Z,7.13
2022-09-20T12:22:00.929Z,7.33
2022-09-20T12:25:26.147Z,6.90
2022-09-20T12:28:15.493Z,6.67
2022-09-20T12:31:19.193Z,6.57
2022-09-20T12:34:13.479Z,6.83
2022-09-20T12:36:59.870Z,7.07
2022-09-20T12:39:52.748Z,6.57
2022-09-20T12:42:37.864Z,5.90
2022-09-20T12:45:23.247Z,5.73
2022-09-20T12:48:19.374Z,6.17
2022-09-20T12:51:36.697Z,6.00
2022-09-20T12:54:22.013Z,5.80
2022-09-20T12:57:26.177Z,6.50
2022-09-20T13:00:32.017Z,5.40
2022-09-20T13:03:28.516Z,6.27
2022-09-20T13:06:17.420Z,5.50
2022-09-20T13:09:04.127Z,5.23
2022-09-20T13:11:54.472Z,5.87
2022-09-20T13:14:40.566Z,5.40
2022-09-20T13:17:30.875Z,5.93
2022-09-20T13:20:35.105Z,5.50
2022-09-20T13:23:27.799Z,5.47
2022-09-20T13:26:15.485Z,5.23
2022-09-20T13:29:02.694Z,5.10
2022-09-20T13:31:48.358Z,4.77
2022-09-20T13:34:34.021Z,4.90
2022-09-20T13:37:23.491Z,5.07
2022-09-20T13:40:25.435Z,5.10
2022-09-20T13:43:32.798Z,4.30
2022-09-20T13:46:23.457Z,4.80
2022-09-20T13:49:23.533Z,4.80
2022-09-20T13:52:22.674Z,4.47
2022-09-20T13:55:26.461Z,4.70
2022-09-20T13:58:30.121Z,4.67
2022-09-20T14:01:42.886Z,4.50
2022-09-20T14:04:31.289Z,5.27
2022-09-20T14:07:16.673Z,4.80
2022-09-20T14:10:01.611Z,4.53
2022-09-20T14:12:49.130Z,4.00
2022-09-20T14:15:38.686Z,4.97
2022-09-20T14:18:24.507Z,4.30
2022-09-20T14:21:11.299Z,4.67
2022-09-20T14:24:02.061Z,4.23
2022-09-20T14:27:03.152Z,4.50
2022-09-20T14:29:57.554Z,4.27
2022-09-20T14:32:52.546Z,3.63
2022-09-20T14:35:37.974Z,4.10
2022-09-20T14:38:25.933Z,4.30
2022-09-20T14:41:13.142Z,3.90
2022-09-20T14:44:00.646Z,3.97
2022-09-20T14:46:45.958Z,4.30
2022-09-20T14:49:33.369Z,3.63
2022-09-20T14:52:27.840Z,3.63
2022-09-20T14:55:12.844Z,3.50
2022-09-20T14:58:00.499Z,3.57
2022-09-20T15:00:54.092Z,3.57
2022-09-20T15:03:42.665Z,3.10
2022-09-20T15:06:27.735Z,3.13
2022-09-20T15:09:13.540Z,3.40
2022-09-20T15:12:04.236Z,3.57
2022-09-20T15:14:49.476Z,3.47
2022-09-20T15:17:34.505Z,3.63
2022-09-20T15:20:24.171Z,4.20
2022-09-20T15:23:10.053Z,3.33
2022-09-20T15:25:55.864Z,3.90
2022-09-20T15:28:42.310Z,3.80
2022-09-20T15:31:28.797Z,3.60
2022-09-20T15:34:16.232Z,3.63
2022-09-20T15:37:01.378Z,3.23
2022-09-20T15:39:46.706Z,3.10
2022-09-20T15:42:31.745Z,5.90
2022-09-20T15:45:17.082Z,11.67
2022-09-20T15:48:03.211Z,35.57
2022-09-20T15:50:58.483Z,122.67
2022-09-20T15:53:45.572Z,113.07
2022-09-20T15:56:33.762Z,109.23
2022-09-20T15:59:23.043Z,136.67
2022-09-20T16:02:09.651Z,158.73
2022-09-20T16:04:55.816Z,140.20
2022-09-20T16:07:41.170Z,126.47
2022-09-20T16:10:26.391Z,106.57
2022-09-20T16:13:11.310Z,78.37
2022-09-20T16:15:57.971Z,70.27
2022-09-20T16:19:01.617Z,85.13
2022-09-20T16:21:56.605Z,73.37
2022-09-20T16:24:43.169Z,66.40
2022-09-20T16:27:36.222Z,60.97
2022-09-20T16:30:21.342Z,74.83
2022-09-20T16:33:06.465Z,75.20
2022-09-20T16:35:52.557Z,71.30
2022-09-20T16:38:42.058Z,78.17
2022-09-20T16:41:28.564Z,71.43
2022-09-20T16:44:14.596Z,66.60
2022-09-20T16:47:01.180Z,61.87
2022-09-20T16:49:47.894Z,62.67
2022-09-20T16:52:33.122Z,56.60
2022-09-20T16:55:19.629Z,50.10
2022-09-20T16:58:04.684Z,49.93
2022-09-20T17:00:49.949Z,50.50
2022-09-20T17:03:35.341Z,50.80
2022-09-20T17:06:20.849Z,44.80
2022-09-20T17:09:07.083Z,39.00
2022-09-20T17:11:53.613Z,34.13
2022-09-20T17:14:38.885Z,32.83
2022-09-20T17:17:24.573Z,27.87
2022-09-20T17:20:09.866Z,22.73
2022-09-20T17:22:55.811Z,19.07
2022-09-20T17:25:43.825Z,17.17
2022-09-20T17:28:28.862Z,15.23
2022-09-20T17:31:17.530Z,14.00
2022-09-20T17:34:07.141Z,11.80
2022-09-20T17:36:54.881Z,9.93
2022-09-20T17:39:41.003Z,9.60
2022-09-20T17:42:27.267Z,8.07
2022-09-20T17:45:12.239Z,7.53
2022-09-20T17:47:58.249Z,7.67
2022-09-20T17:50:43.989Z,6.53
2022-09-20T17:53:34.598Z,6.43
2022-09-20T17:56:23.193Z,5.87
2022-09-20T17:59:08.254Z,6.40
2022-09-20T18:01:54.432Z,5.70
2022-09-20T18:04:42.314Z,6.27
2022-09-20T18:07:27.411Z,5.60
2022-09-20T18:10:15.561Z,5.17
2022-09-20T18:13:01.160Z,5.10
2022-09-20T18:15:46.314Z,4.90
2022-09-20T18:18:31.978Z,5.20
2022-09-20T18:21:22.541Z,4.13
2022-09-20T18:24:10.006Z,4.27
2022-09-20T18:26:55.657Z,4.47
2022-09-20T18:29:40.602Z,3.90
2022-09-20T18:32:29.723Z,4.03
2022-09-20T18:35:15.052Z,4.13
2022-09-20T18:38:00.039Z,4.03
2022-09-20T18:40:53.982Z,4.13
2022-09-20T18:43:41.843Z,4.37
2022-09-20T18:46:30.550Z,4.23
2022-09-20T18:49:16.855Z,4.77
2022-09-20T18:52:02.340Z,4.30
2022-09-20T18:54:48.055Z,3.73
2022-09-20T18:57:33.499Z,4.40
2022-09-20T19:00:18.999Z,4.77
2022-09-20T19:03:14.571Z,3.70
2022-09-20T19:06:07.640Z,4.50
2022-09-20T19:09:00.456Z,3.97
2022-09-20T19:11:55.652Z,4.23
2022-09-20T19:14:55.031Z,3.30
2022-09-20T19:17:55.661Z,3.97
2022-09-20T19:20:48.410Z,4.20
2022-09-20T19:23:46.462Z,3.83
2022-09-20T19:26:37.929Z,4.27
2022-09-20T19:29:26.753Z,9.77
2022-09-20T19:32:21.515Z,14.67
2022-09-20T19:35:17.620Z,12.97
2022-09-20T19:38:35.279Z,13.93
2022-09-20T19:42:07.954Z,15.07
2022-09-20T19:45:07.145Z,12.13
2022-09-20T19:48:09.771Z,10.43
2022-09-20T19:50:56.472Z,9.17
2022-09-20T19:53:41.830Z,9.67
2022-09-20T19:56:34.680Z,10.17
2022-09-20T19:59:21.582Z,10.47
2022-09-20T20:02:09.770Z,9.30
2022-09-20T20:04:55.787Z,10.17
2022-09-20T20:07:58.791Z,9.13
2022-09-20T20:11:11.158Z,10.17
2022-09-20T20:14:20.915Z,10.30
2022-09-20T20:17:50.055Z,9.53
2022-09-20T20:20:53.549Z,9.50
2022-09-20T20:23:52.505Z,9.70
2022-09-20T20:26:37.421Z,9.20
2022-09-20T20:29:22.274Z,9.53
2022-09-20T20:32:07.352Z,8.90
2022-09-20T20:34:52.211Z,8.83
2022-09-20T20:37:37.976Z,9.27
2022-09-20T20:40:22.928Z,8.57
2022-09-20T20:43:09.786Z,8.63
2022-09-20T20:45:54.803Z,9.07
2022-09-20T20:48:39.761Z,8.83
2022-09-20T20:51:27.125Z,8.17
2022-09-20T20:54:12.098Z,8.07
2022-09-20T20:56:57.428Z,8.17
2022-09-20T20:59:42.740Z,8.63
2022-09-20T21:02:27.652Z,7.67
2022-09-20T21:05:15.073Z,8.40
2022-09-20T21:08:00.006Z,7.93
2022-09-20T21:10:45.299Z,8.60
2022-09-20T21:13:31.131Z,7.60
2022-09-20T21:16:19.767Z,6.03
2022-09-20T21:19:06.046Z,5.80
2022-09-20T21:21:51.106Z,5.80
2022-09-20T21:24:35.930Z,6.07
2022-09-20T21:27:21.012Z,6.10
2022-09-20T21:30:06.903Z,5.77
2022-09-20T21:32:53.678Z,5.80
2022-09-20T21:35:38.705Z,6.33
2022-09-20T21:38:23.698Z,32.80
2022-09-20T21:41:17.699Z,116.53
2022-09-20T21:44:04.710Z,217.73
2022-09-20T21:46:50.021Z,205.27
2022-09-20T21:49:35.466Z,342.67
2022-09-20T21:52:20.427Z,308.70
2022-09-20T21:55:06.879Z,206.93
2022-09-20T21:57:52.710Z,176.13
2022-09-20T22:00:38.830Z,151.70
2022-09-20T22:03:23.819Z,250.90
2022-09-20T22:06:23.103Z,222.17
2022-09-20T22:09:10.612Z,183.73
2022-09-20T22:11:55.830Z,251.90
2022-09-20T22:14:41.092Z,231.87
2022-09-20T22:17:26.982Z,178.17
2022-09-20T22:20:11.967Z,146.37
2022-09-20T22:22:57.006Z,149.00
2022-09-20T22:25:42.467Z,139.50
2022-09-20T22:28:27.861Z,143.87
2022-09-20T22:31:15.257Z,159.40
2022-09-20T22:34:03.877Z,165.17
2022-09-20T22:36:49.530Z,167.47
2022-09-20T22:39:34.387Z,172.77
2022-09-20T22:42:19.221Z,173.80
2022-09-20T22:45:04.328Z,172.73
2022-09-20T22:47:49.227Z,163.57
2022-09-20T22:50:34.270Z,162.23
2022-09-20T22:53:19.289Z,156.23
2022-09-20T22:56:12.732Z,157.27
2022-09-20T22:59:00.349Z,149.37
2022-09-20T23:01:46.759Z,153.40
2022-09-20T23:04:32.307Z,152.27
2022-09-20T23:07:17.589Z,142.70
2022-09-20T23:10:02.869Z,144.83
2022-09-20T23:12:50.534Z,143.80
2022-09-20T23:15:35.661Z,137.33
2022-09-20T23:18:20.616Z,143.43
2022-09-20T23:21:05.759Z,141.60
2022-09-20T23:23:56.673Z,146.97
2022-09-20T23:26:42.962Z,138.43
2022-09-20T23:29:28.370Z,138.60
2022-09-20T23:32:13.425Z,132.97
2022-09-20T23:34:58.802Z,133.40
2022-09-20T23:37:43.734Z,132.97
2022-09-20T23:40:29.391Z,128.90
2022-09-20T23:43:14.690Z,125.30
2022-09-20T23:46:00.056Z,127.47
2022-09-20T23:48:45.366Z,126.63
2022-09-20T23:51:30.806Z,122.07
2022-09-20T23:54:16.056Z,116.57
2022-09-20T23:57:01.359Z,118.97
2022-09-20T23:59:46.461Z,114.40
